Chester-le-Street, United Kingdom
Current Conditions -  °F | °C
As of 5:50 AM on Tuesday 27 Jan 2015 (Local Time) from EGNT Reporting Station
Few Clouds Few Clouds  
Wind Chill: 34°   Ceiling: Unl
Heat Index: 41°   Visibility: 6mi
Dew Point: 39°   Wind: 12mph
Humidity: 93%   Direction: 260°W
Pressure: 30.21"   Gusts: NA
Location:  54.86°N, 1.59°W
Report Text: EGNT 270550Z 26010KT 9999 FEW008 05/04 Q1023
Loading
Personal Weather Stations






























Interactive Weather Map New forecast layout! Learn more

10-Day Weather Forecast

Advertisements
Track Severe Weather on mobile